createdAt,value
2023-10-26T00:01:59.622Z,10.53
2023-10-26T00:04:26.026Z,10.46
2023-10-26T00:06:52.559Z,10.45
2023-10-26T00:09:18.962Z,10.48
2023-10-26T00:11:45.416Z,10.44
2023-10-26T00:14:11.878Z,10.40
2023-10-26T00:16:38.249Z,10.40
2023-10-26T00:19:04.945Z,10.46
2023-10-26T00:21:31.444Z,10.41
2023-10-26T00:23:57.937Z,10.45
2023-10-26T00:26:24.459Z,10.39
2023-10-26T00:28:50.886Z,10.38
2023-10-26T00:31:17.276Z,10.46
2023-10-26T00:33:43.794Z,10.40
2023-10-26T00:36:10.278Z,10.42
2023-10-26T00:38:36.649Z,10.36
2023-10-26T00:41:03.278Z,10.34
2023-10-26T00:43:29.806Z,10.48
2023-10-26T00:45:56.223Z,10.39
2023-10-26T00:48:22.703Z,10.34
2023-10-26T00:50:49.315Z,10.37
2023-10-26T00:53:16.307Z,10.36
2023-10-26T00:55:42.854Z,10.41
2023-10-26T00:58:09.232Z,10.36
2023-10-26T01:00:35.598Z,10.37
2023-10-26T01:03:02.034Z,10.33
2023-10-26T01:05:28.475Z,10.36
2023-10-26T01:07:54.858Z,10.50
2023-10-26T01:10:21.302Z,10.41
2023-10-26T01:12:47.742Z,10.50
2023-10-26T01:15:14.309Z,10.38
2023-10-26T01:17:40.782Z,10.36
2023-10-26T01:20:07.596Z,10.45
2023-10-26T01:22:33.982Z,10.38
2023-10-26T01:25:00.451Z,10.33
2023-10-26T01:27:26.881Z,10.32
2023-10-26T01:29:53.342Z,10.38
2023-10-26T01:32:19.759Z,10.36
2023-10-26T01:34:46.245Z,10.43
2023-10-26T01:37:12.669Z,10.33
2023-10-26T01:39:39.809Z,10.34
2023-10-26T01:42:11.138Z,10.26
2023-10-26T01:44:38.353Z,10.25
2023-10-26T01:47:04.915Z,10.20
2023-10-26T01:49:31.286Z,10.26
2023-10-26T01:51:57.664Z,10.28
2023-10-26T01:54:24.045Z,10.25
2023-10-26T01:56:50.455Z,10.07
2023-10-26T01:59:16.885Z,10.11
2023-10-26T02:01:43.282Z,10.05
2023-10-26T02:04:09.967Z,10.07
2023-10-26T02:06:36.619Z,10.12
2023-10-26T02:09:03.499Z,10.04
2023-10-26T02:11:29.908Z,10.08
2023-10-26T02:13:56.268Z,10.02
2023-10-26T02:16:22.659Z,9.95
2023-10-26T02:18:49.464Z,9.88
2023-10-26T02:21:15.965Z,9.92
2023-10-26T02:23:42.555Z,9.84
2023-10-26T02:26:09.043Z,9.79
2023-10-26T02:28:35.582Z,9.76
2023-10-26T02:31:02.187Z,9.81
2023-10-26T02:33:28.767Z,9.73
2023-10-26T02:35:55.183Z,9.70
2023-10-26T02:38:21.576Z,9.70
2023-10-26T02:40:47.938Z,9.65
2023-10-26T02:43:14.305Z,9.66
2023-10-26T02:45:41.798Z,9.64
2023-10-26T02:48:08.252Z,9.60
2023-10-26T02:50:36.235Z,9.56
2023-10-26T02:53:02.893Z,9.51
2023-10-26T02:55:29.276Z,9.56
2023-10-26T02:57:56.012Z,9.46
2023-10-26T03:00:22.475Z,9.52
2023-10-26T03:02:49.087Z,9.47
2023-10-26T03:05:15.920Z,9.37
2023-10-26T03:07:42.627Z,9.39
2023-10-26T03:10:09.152Z,9.40
2023-10-26T03:12:35.764Z,9.41
2023-10-26T03:15:02.243Z,9.35
2023-10-26T03:17:28.707Z,9.27
2023-10-26T03:19:55.112Z,9.30
2023-10-26T03:22:21.645Z,9.27
2023-10-26T03:24:49.465Z,9.22
2023-10-26T03:27:15.860Z,9.28
2023-10-26T03:29:42.324Z,9.24
2023-10-26T03:32:08.746Z,9.26
2023-10-26T03:34:35.421Z,9.27
2023-10-26T03:37:01.860Z,9.28
2023-10-26T03:39:29.447Z,9.24
2023-10-26T03:41:56.141Z,9.16
2023-10-26T03:44:22.848Z,9.23
2023-10-26T03:46:49.199Z,9.24
2023-10-26T03:49:15.578Z,9.19
2023-10-26T03:51:41.951Z,9.16
2023-10-26T03:54:08.422Z,9.18
2023-10-26T03:56:35.058Z,9.09
2023-10-26T03:59:01.432Z,9.11
2023-10-26T04:01:27.861Z,9.18
2023-10-26T04:03:54.290Z,9.07
2023-10-26T04:06:20.711Z,9.14
2023-10-26T04:08:47.122Z,9.20
2023-10-26T04:11:17.860Z,9.17
2023-10-26T04:13:44.336Z,9.18
2023-10-26T04:16:10.794Z,9.19
2023-10-26T04:18:37.297Z,9.15
2023-10-26T04:21:03.837Z,9.11
2023-10-26T04:23:30.273Z,9.08
2023-10-26T04:25:56.634Z,9.07
2023-10-26T04:28:23.094Z,9.07
2023-10-26T04:30:49.659Z,9.07
2023-10-26T04:33:16.270Z,9.06
2023-10-26T04:35:43.427Z,9.15
2023-10-26T04:38:10.205Z,9.21
2023-10-26T04:40:37.727Z,9.14
2023-10-26T04:43:04.693Z,9.08
2023-10-26T04:45:31.204Z,9.13
2023-10-26T04:47:57.699Z,9.16
2023-10-26T04:50:24.395Z,9.11
2023-10-26T04:52:51.131Z,9.04
2023-10-26T04:55:17.539Z,9.11
2023-10-26T04:57:44.278Z,9.19
2023-10-26T05:00:11.204Z,9.11
2023-10-26T05:02:41.474Z,9.18
2023-10-26T05:05:08.503Z,9.12
2023-10-26T05:07:34.884Z,9.12
2023-10-26T05:10:01.289Z,9.09
2023-10-26T05:12:27.800Z,9.18
2023-10-26T05:14:54.164Z,9.24
2023-10-26T05:17:20.527Z,9.23
2023-10-26T05:19:46.894Z,9.23
2023-10-26T05:22:13.337Z,9.17
2023-10-26T05:24:40.078Z,9.11
2023-10-26T05:27:06.462Z,9.14
2023-10-26T05:29:32.844Z,9.07
2023-10-26T05:31:59.286Z,9.05
2023-10-26T05:34:25.721Z,9.10
2023-10-26T05:36:52.077Z,9.14
2023-10-26T05:39:18.482Z,9.15
2023-10-26T05:41:45.209Z,9.12
2023-10-26T05:44:11.660Z,9.18
2023-10-26T05:46:38.017Z,9.07
2023-10-26T05:49:05.133Z,9.07
2023-10-26T05:51:31.834Z,9.08
2023-10-26T05:53:58.340Z,9.03
2023-10-26T05:56:24.733Z,9.08
2023-10-26T05:58:51.696Z,9.09
2023-10-26T06:01:18.556Z,9.09
2023-10-26T06:03:45.300Z,9.03
2023-10-26T06:06:11.851Z,9.09
2023-10-26T06:08:38.274Z,9.13
2023-10-26T06:11:04.894Z,9.07
2023-10-26T06:13:31.320Z,9.08
2023-10-26T06:15:57.734Z,9.17
2023-10-26T06:18:24.178Z,9.12
2023-10-26T06:20:59.793Z,9.10
2023-10-26T06:23:26.276Z,9.04
2023-10-26T06:25:57.086Z,9.03
2023-10-26T06:28:23.482Z,9.03
2023-10-26T06:30:49.850Z,9.00
2023-10-26T06:33:16.285Z,9.14
2023-10-26T06:35:43.026Z,9.09
2023-10-26T06:38:09.409Z,9.03
2023-10-26T06:40:35.773Z,9.04
2023-10-26T06:43:02.274Z,9.06
2023-10-26T06:45:28.740Z,9.12
2023-10-26T06:47:55.178Z,9.06
2023-10-26T06:50:23.342Z,9.15
2023-10-26T06:52:49.812Z,9.14
2023-10-26T06:55:30.085Z,9.18
2023-10-26T06:57:57.350Z,9.25
2023-10-26T07:00:24.307Z,9.25
2023-10-26T07:02:50.836Z,9.23
2023-10-26T07:05:17.761Z,9.21
2023-10-26T07:07:44.191Z,9.23
2023-10-26T07:10:16.347Z,9.22
2023-10-26T07:12:43.517Z,9.19
2023-10-26T07:15:10.133Z,9.18
2023-10-26T07:17:36.660Z,9.24
2023-10-26T07:20:03.391Z,9.24
2023-10-26T07:22:30.068Z,9.23
2023-10-26T07:24:56.454Z,9.24
2023-10-26T07:27:22.853Z,9.23
2023-10-26T07:29:49.308Z,9.27
2023-10-26T07:32:15.680Z,9.29
2023-10-26T07:34:42.663Z,9.29
2023-10-26T07:37:09.356Z,9.40
2023-10-26T07:39:45.181Z,9.38
2023-10-26T07:42:14.659Z,9.35
2023-10-26T07:44:41.102Z,9.38
2023-10-26T07:47:10.555Z,9.33
2023-10-26T07:49:36.981Z,9.37
2023-10-26T07:52:03.448Z,9.42
2023-10-26T07:54:30.001Z,9.45
2023-10-26T07:56:56.501Z,9.43
2023-10-26T07:59:22.921Z,9.50
2023-10-26T08:01:49.715Z,9.43
2023-10-26T08:04:16.152Z,9.60
2023-10-26T08:06:42.592Z,9.61
2023-10-26T08:09:09.021Z,9.70
2023-10-26T08:11:35.672Z,9.80
2023-10-26T08:14:02.162Z,9.80
2023-10-26T08:16:39.900Z,9.59
2023-10-26T08:19:10.582Z,9.55
2023-10-26T08:21:37.037Z,9.59
2023-10-26T08:24:03.693Z,9.62
2023-10-26T08:26:30.057Z,9.61
2023-10-26T08:29:11.997Z,9.60
2023-10-26T08:31:42.076Z,9.74
2023-10-26T08:34:10.056Z,9.76
2023-10-26T08:36:36.594Z,9.86
2023-10-26T08:39:03.865Z,9.82
2023-10-26T08:41:32.724Z,9.81
2023-10-26T08:43:59.619Z,9.92
2023-10-26T08:46:26.151Z,9.98
2023-10-26T08:48:52.623Z,9.94
2023-10-26T08:51:18.984Z,9.86
2023-10-26T08:53:45.436Z,9.96
2023-10-26T08:56:12.527Z,9.96
2023-10-26T08:58:39.203Z,9.95
2023-10-26T09:01:06.294Z,10.14
2023-10-26T09:03:33.980Z,9.93
2023-10-26T09:06:00.399Z,9.95
2023-10-26T09:08:29.796Z,10.03
2023-10-26T09:10:56.244Z,10.01
2023-10-26T09:13:23.218Z,10.06
2023-10-26T09:15:50.062Z,10.19
2023-10-26T09:18:16.667Z,10.24
2023-10-26T09:20:46.122Z,10.15
2023-10-26T09:23:28.517Z,10.22
2023-10-26T09:25:58.723Z,10.20
2023-10-26T09:28:25.198Z,10.18
2023-10-26T09:30:51.973Z,10.06
2023-10-26T09:33:25.497Z,10.07
2023-10-26T09:35:52.095Z,10.09
2023-10-26T09:38:18.715Z,10.16
2023-10-26T09:40:45.208Z,10.03
2023-10-26T09:43:11.580Z,10.09
2023-10-26T09:45:38.232Z,10.11
2023-10-26T09:48:06.478Z,9.96
2023-10-26T09:50:39.281Z,10.14
2023-10-26T09:53:05.681Z,10.22
2023-10-26T09:55:32.090Z,10.30
2023-10-26T09:58:01.624Z,10.36
2023-10-26T10:00:32.785Z,10.30
2023-10-26T10:03:12.212Z,10.39
2023-10-26T10:05:42.602Z,10.36
2023-10-26T10:08:09.045Z,10.49
2023-10-26T10:10:35.531Z,10.35
2023-10-26T10:13:02.448Z,10.33
2023-10-26T10:15:42.604Z,10.29
2023-10-26T10:18:10.108Z,10.24
2023-10-26T10:20:36.902Z,10.10
2023-10-26T10:23:03.744Z,10.08
2023-10-26T10:25:50.342Z,9.97
2023-10-26T10:28:17.074Z,9.94
2023-10-26T10:30:51.706Z,9.86
2023-10-26T10:33:22.088Z,9.93
2023-10-26T10:35:51.368Z,10.01
2023-10-26T10:38:18.462Z,9.84
2023-10-26T10:40:58.475Z,9.67
2023-10-26T10:43:35.112Z,9.84
2023-10-26T10:46:10.674Z,9.99
2023-10-26T10:48:37.168Z,10.01
2023-10-26T10:51:03.610Z,9.97
2023-10-26T10:53:32.522Z,9.99
2023-10-26T10:55:59.583Z,9.99
2023-10-26T10:58:26.287Z,10.01
2023-10-26T11:00:52.769Z,10.03
2023-10-26T11:03:22.469Z,9.88
2023-10-26T11:05:48.914Z,9.97
2023-10-26T11:08:15.387Z,10.04
2023-10-26T11:10:41.920Z,10.07
2023-10-26T11:13:08.305Z,10.17
2023-10-26T11:15:35.103Z,10.13
2023-10-26T11:18:01.876Z,10.27
2023-10-26T11:20:39.119Z,10.14
2023-10-26T11:23:09.021Z,10.15
2023-10-26T11:25:35.654Z,10.19
2023-10-26T11:28:02.229Z,10.23
2023-10-26T11:30:28.652Z,10.17
2023-10-26T11:32:55.464Z,10.21
2023-10-26T11:35:22.841Z,10.21
2023-10-26T11:37:50.483Z,10.24
2023-10-26T11:40:17.231Z,10.34
2023-10-26T11:42:44.233Z,10.24
2023-10-26T11:45:12.724Z,10.25
2023-10-26T11:47:48.966Z,10.25
2023-10-26T11:50:21.183Z,10.37
2023-10-26T11:52:47.556Z,10.36
2023-10-26T11:55:15.586Z,10.18
2023-10-26T11:57:42.155Z,10.15
2023-10-26T12:00:09.016Z,10.25
2023-10-26T12:02:35.469Z,10.27
2023-10-26T12:05:01.980Z,10.33
2023-10-26T12:07:28.570Z,10.48
2023-10-26T12:09:54.987Z,10.71
2023-10-26T12:12:21.441Z,10.69
2023-10-26T12:14:48.284Z,10.67
2023-10-26T12:17:14.643Z,10.59
2023-10-26T12:19:41.084Z,10.77
2023-10-26T12:22:07.485Z,10.81
2023-10-26T12:24:34.184Z,10.77
2023-10-26T12:27:00.993Z,10.64
2023-10-26T12:29:27.397Z,10.52
2023-10-26T12:31:53.939Z,10.54
2023-10-26T12:34:20.743Z,10.53
2023-10-26T12:36:47.319Z,10.60
2023-10-26T12:39:14.347Z,10.63
2023-10-26T12:41:42.682Z,10.70
2023-10-26T12:44:09.057Z,10.70
2023-10-26T12:46:35.784Z,10.61
2023-10-26T12:49:02.197Z,10.49
2023-10-26T12:51:28.655Z,10.46
2023-10-26T12:53:57.488Z,10.46
2023-10-26T12:56:26.323Z,10.38
2023-10-26T12:58:52.813Z,10.31
2023-10-26T13:01:19.217Z,10.29
2023-10-26T13:03:46.069Z,10.19
2023-10-26T13:06:12.455Z,10.12
2023-10-26T13:08:38.972Z,10.27
2023-10-26T13:11:05.431Z,10.32
2023-10-26T13:13:31.819Z,10.42
2023-10-26T13:15:58.215Z,10.52
2023-10-26T13:18:24.615Z,10.45
2023-10-26T13:20:51.307Z,10.48
2023-10-26T13:23:18.711Z,10.59
2023-10-26T13:25:45.719Z,10.56
2023-10-26T13:28:13.181Z,10.68
2023-10-26T13:30:39.734Z,10.80
2023-10-26T13:33:07.878Z,10.85
2023-10-26T13:35:35.975Z,10.71
2023-10-26T13:38:02.338Z,10.64
2023-10-26T13:40:28.845Z,10.52
2023-10-26T13:42:55.249Z,10.57
2023-10-26T13:45:23.384Z,10.46
2023-10-26T13:47:51.081Z,10.37
2023-10-26T13:50:20.357Z,10.33
2023-10-26T13:52:46.761Z,10.30
2023-10-26T13:55:13.199Z,10.28
2023-10-26T13:57:39.718Z,10.26
2023-10-26T14:00:09.183Z,10.15
2023-10-26T14:02:35.753Z,10.29
2023-10-26T14:05:03.316Z,10.34
2023-10-26T14:07:31.362Z,10.21
2023-10-26T14:09:57.826Z,10.24
2023-10-26T14:12:24.241Z,10.30
2023-10-26T14:14:50.685Z,10.27
2023-10-26T14:17:17.076Z,10.18
2023-10-26T14:19:43.494Z,10.07
2023-10-26T14:22:09.893Z,10.11
2023-10-26T14:24:36.302Z,10.11
2023-10-26T14:27:02.696Z,10.13
2023-10-26T14:29:29.094Z,10.12
2023-10-26T14:31:55.496Z,10.21
2023-10-26T14:34:21.913Z,10.18
2023-10-26T14:36:48.399Z,10.17
2023-10-26T14:39:14.851Z,10.20
2023-10-26T14:41:42.003Z,10.26
2023-10-26T14:44:08.990Z,10.26
2023-10-26T14:46:35.656Z,10.19
2023-10-26T14:49:03.796Z,10.05
2023-10-26T14:51:30.181Z,10.14
2023-10-26T14:53:56.816Z,10.10
2023-10-26T14:56:23.355Z,10.11
2023-10-26T14:58:50.771Z,10.01
2023-10-26T15:01:17.188Z,9.95
2023-10-26T15:03:43.704Z,10.02
2023-10-26T15:06:10.104Z,9.97
2023-10-26T15:08:36.484Z,9.97
2023-10-26T15:11:23.992Z,9.93
2023-10-26T15:13:50.205Z,9.96
2023-10-26T15:16:16.768Z,9.95
2023-10-26T15:18:43.248Z,9.96
2023-10-26T15:21:09.727Z,9.99
2023-10-26T15:23:36.103Z,9.96
2023-10-26T15:26:04.229Z,10.00
2023-10-26T15:28:33.367Z,9.96
2023-10-26T15:31:03.378Z,9.99
2023-10-26T15:33:30.037Z,9.99
2023-10-26T15:35:56.455Z,10.04
2023-10-26T15:38:23.021Z,10.00
2023-10-26T15:40:59.690Z,9.97
2023-10-26T15:43:26.054Z,9.86
2023-10-26T15:45:52.451Z,9.96
2023-10-26T15:48:18.845Z,9.88
2023-10-26T15:51:05.292Z,9.87
2023-10-26T15:53:31.911Z,9.71
2023-10-26T15:56:03.825Z,9.64
2023-10-26T15:58:30.199Z,9.51
2023-10-26T16:01:03.162Z,9.53
2023-10-26T16:03:30.807Z,9.67
2023-10-26T16:06:03.924Z,9.65
2023-10-26T16:08:30.868Z,9.60
2023-10-26T16:10:57.231Z,9.61
2023-10-26T16:13:23.637Z,9.62
2023-10-26T16:15:50.042Z,9.60
2023-10-26T16:18:16.452Z,9.53
2023-10-26T16:20:42.809Z,9.52
2023-10-26T16:23:09.188Z,9.58
2023-10-26T16:25:35.627Z,9.55
2023-10-26T16:28:02.476Z,9.56
2023-10-26T16:30:28.896Z,9.71
2023-10-26T16:32:55.265Z,9.59
2023-10-26T16:35:21.629Z,9.48
2023-10-26T16:37:48.081Z,9.49
2023-10-26T16:40:16.369Z,9.50
2023-10-26T16:42:42.836Z,9.48
2023-10-26T16:45:09.237Z,9.51
2023-10-26T16:47:44.465Z,9.48
2023-10-26T16:50:15.002Z,9.44
2023-10-26T16:52:41.363Z,9.35
2023-10-26T16:55:07.932Z,9.35
2023-10-26T16:57:34.339Z,9.33
2023-10-26T17:00:00.762Z,9.32
2023-10-26T17:02:27.114Z,9.29
2023-10-26T17:04:55.218Z,9.31
2023-10-26T17:07:25.304Z,9.29
2023-10-26T17:09:51.840Z,9.25
2023-10-26T17:12:18.302Z,9.17
2023-10-26T17:14:49.158Z,9.19
2023-10-26T17:17:15.730Z,9.24
2023-10-26T17:19:42.219Z,9.20
2023-10-26T17:22:10.406Z,9.22
2023-10-26T17:24:37.348Z,9.24
2023-10-26T17:27:03.805Z,9.31
2023-10-26T17:29:30.249Z,9.42
2023-10-26T17:31:57.146Z,9.45
2023-10-26T17:34:25.820Z,9.42
2023-10-26T17:36:52.973Z,9.40
2023-10-26T17:39:19.602Z,9.24
2023-10-26T17:41:46.634Z,9.27
2023-10-26T17:44:13.418Z,9.26
2023-10-26T17:46:40.337Z,9.27
2023-10-26T17:49:06.856Z,9.14
2023-10-26T17:51:34.728Z,9.09
2023-10-26T17:54:05.202Z,9.08
2023-10-26T17:56:33.043Z,9.08
2023-10-26T17:58:59.496Z,9.08
2023-10-26T18:01:26.167Z,9.03
2023-10-26T18:03:52.610Z,8.97
2023-10-26T18:06:23.615Z,8.96
2023-10-26T18:08:50.944Z,8.95
2023-10-26T18:11:17.321Z,8.92
2023-10-26T18:13:43.704Z,8.93
2023-10-26T18:16:10.466Z,8.90
2023-10-26T18:18:37.172Z,8.95
2023-10-26T18:21:04.353Z,9.03
2023-10-26T18:23:30.989Z,8.99
2023-10-26T18:25:59.425Z,9.06
2023-10-26T18:28:26.506Z,9.06
2023-10-26T18:31:02.699Z,9.07
2023-10-26T18:33:29.644Z,9.13
2023-10-26T18:36:00.540Z,9.06
2023-10-26T18:38:27.229Z,9.00
2023-10-26T18:40:53.603Z,8.97
2023-10-26T18:43:19.985Z,8.95
2023-10-26T18:45:59.290Z,9.10
2023-10-26T18:48:25.706Z,9.10
2023-10-26T18:50:52.130Z,8.93
2023-10-26T18:53:19.588Z,8.94
2023-10-26T18:55:49.039Z,8.94
2023-10-26T18:58:15.781Z,8.87
2023-10-26T19:00:42.339Z,8.75
2023-10-26T19:03:09.944Z,8.68
2023-10-26T19:05:36.487Z,8.60
2023-10-26T19:08:04.034Z,8.54
2023-10-26T19:10:31.072Z,8.50
2023-10-26T19:12:57.610Z,8.45
2023-10-26T19:15:24.201Z,8.42
2023-10-26T19:17:51.223Z,8.40
2023-10-26T19:20:21.560Z,8.39
2023-10-26T19:22:50.583Z,8.40
2023-10-26T19:25:22.153Z,8.41
2023-10-26T19:27:49.213Z,8.44
2023-10-26T19:30:16.270Z,8.42
2023-10-26T19:32:42.664Z,8.44
2023-10-26T19:35:09.226Z,8.44
2023-10-26T19:37:35.608Z,8.43
2023-10-26T19:40:06.311Z,8.55
2023-10-26T19:42:37.333Z,8.43
2023-10-26T19:45:05.674Z,8.37
2023-10-26T19:47:32.142Z,8.32
2023-10-26T19:49:59.196Z,8.31
2023-10-26T19:52:25.564Z,8.11
2023-10-26T19:54:51.976Z,8.06
2023-10-26T19:57:19.066Z,7.87
2023-10-26T19:59:45.960Z,7.77
2023-10-26T20:02:12.950Z,7.77
2023-10-26T20:04:39.596Z,7.88
2023-10-26T20:07:06.026Z,7.50
2023-10-26T20:09:32.571Z,7.51
2023-10-26T20:11:58.940Z,7.39
2023-10-26T20:14:25.397Z,7.38
2023-10-26T20:16:52.014Z,7.41
2023-10-26T20:19:18.461Z,7.36
2023-10-26T20:21:44.996Z,7.33
2023-10-26T20:24:11.814Z,7.27
2023-10-26T20:26:38.469Z,7.24
2023-10-26T20:29:04.838Z,7.27
2023-10-26T20:31:31.809Z,7.28
2023-10-26T20:33:58.482Z,7.24
2023-10-26T20:36:25.087Z,7.33
2023-10-26T20:38:51.471Z,7.23
2023-10-26T20:41:18.020Z,7.21
2023-10-26T20:43:44.654Z,7.14
2023-10-26T20:46:11.239Z,7.13
2023-10-26T20:48:41.630Z,7.06
2023-10-26T20:51:11.773Z,6.99
2023-10-26T20:53:38.272Z,6.95
2023-10-26T20:56:07.614Z,6.98
2023-10-26T20:58:34.083Z,6.99
2023-10-26T21:01:04.572Z,7.00
2023-10-26T21:03:31.144Z,7.02
2023-10-26T21:06:04.202Z,6.91
2023-10-26T21:08:30.692Z,7.06
2023-10-26T21:10:57.085Z,7.11
2023-10-26T21:13:23.544Z,7.08
2023-10-26T21:15:50.016Z,7.08
2023-10-26T21:18:16.487Z,7.01
2023-10-26T21:20:42.838Z,6.86
2023-10-26T21:23:09.352Z,6.77
2023-10-26T21:25:35.698Z,7.01
2023-10-26T21:28:02.161Z,7.08
2023-10-26T21:30:28.568Z,7.03
2023-10-26T21:32:55.013Z,7.00
2023-10-26T21:35:21.391Z,6.94
2023-10-26T21:37:47.780Z,7.05
2023-10-26T21:40:14.257Z,7.14
2023-10-26T21:42:40.728Z,7.20
2023-10-26T21:45:07.981Z,7.24
2023-10-26T21:47:34.404Z,7.29
2023-10-26T21:50:00.796Z,7.39
2023-10-26T21:52:27.588Z,7.38
2023-10-26T21:54:54.028Z,7.24
2023-10-26T21:57:20.772Z,7.23
2023-10-26T21:59:47.168Z,7.35
2023-10-26T22:02:14.447Z,7.37
2023-10-26T22:04:40.914Z,7.46
2023-10-26T22:07:07.334Z,7.35
2023-10-26T22:09:41.534Z,7.20
2023-10-26T22:12:15.184Z,7.08
2023-10-26T22:14:42.074Z,7.07
2023-10-26T22:17:08.499Z,7.14
2023-10-26T22:19:37.648Z,7.11
2023-10-26T22:22:04.497Z,6.97
2023-10-26T22:24:30.934Z,6.82
2023-10-26T22:26:57.287Z,6.70
2023-10-26T22:29:29.977Z,6.73
2023-10-26T22:31:57.250Z,6.74
2023-10-26T22:34:23.752Z,6.78
2023-10-26T22:36:50.256Z,6.69
2023-10-26T22:39:16.706Z,6.60
2023-10-26T22:41:44.398Z,6.47
2023-10-26T22:44:11.188Z,6.69
2023-10-26T22:46:37.580Z,6.62
2023-10-26T22:49:04.031Z,6.50
2023-10-26T22:51:30.802Z,6.48
2023-10-26T22:53:57.168Z,6.48
2023-10-26T22:56:23.531Z,6.34
2023-10-26T22:58:50.212Z,6.13
2023-10-26T23:01:17.161Z,6.07
2023-10-26T23:03:43.594Z,6.13
2023-10-26T23:06:10.041Z,6.05
2023-10-26T23:08:36.421Z,6.08
2023-10-26T23:11:02.883Z,6.08
2023-10-26T23:13:29.297Z,6.08
2023-10-26T23:15:55.721Z,6.32
2023-10-26T23:18:22.228Z,6.23
2023-10-26T23:20:48.613Z,6.23
2023-10-26T23:23:15.026Z,6.40
2023-10-26T23:25:42.764Z,6.19
2023-10-26T23:28:09.298Z,6.13
2023-10-26T23:30:36.228Z,6.12
2023-10-26T23:33:03.481Z,6.06
2023-10-26T23:35:31.854Z,6.00
2023-10-26T23:37:58.438Z,5.95
2023-10-26T23:40:25.557Z,6.00
2023-10-26T23:42:52.015Z,5.96
2023-10-26T23:45:18.410Z,6.04
2023-10-26T23:47:44.965Z,5.92
2023-10-26T23:50:11.549Z,5.80
2023-10-26T23:52:39.180Z,5.56
2023-10-26T23:55:06.618Z,5.53
2023-10-26T23:57:33.048Z,5.66
2023-10-26T23:59:59.413Z,5.50
